Los Alamos, New Mexico
Current Conditions -  °F | °C
As of 9:15 AM on Sunday 25 Jan 2015 (Local Time) from KLAM Reporting Station
Clear Clear  
Wind Chill: 34°   Ceiling: Unl
Heat Index: 39°   Visibility: 10mi
Dew Point: 18°   Wind: 8mph
Humidity: 42%   Direction: 20°NNE
Pressure: 30.31"   Gusts: NA
Location:  35.88°N, 106.3°W
Report Text: KLAM 251615Z AUTO 02007KT 10SM CLR 04/M08 A3031 RMK AO2 T00411077
Loading
Personal Weather Stations






























Interactive Weather Map New forecast layout! Learn more

10-Day Weather Forecast

Advertisements
Track Severe Weather on mobile